Time;durP1;ratioP1;P1;durP2;ratioP2;P2;SDS_P1;SDS_P2;PMS_P1;PMS_P2;Temp;Humidity;BMP_temperature;BMP_pressure;BME280_temperature;BME280_humidity;BME280_pressure;Samples;Min_cycle;Max_cycle;Signal;HPM_P1;HPM_P2
2021/06/22 00:01:51;;;;;;;7.20;5.00;;;15.10;99.90;;;;;;5074472;28;20496;-69
2021/06/22 00:04:18;;;;;;;5.10;4.33;;;15.10;99.90;;;;;;5074264;28;20268;-68
2021/06/22 00:06:43;;;;;;;8.00;4.73;;;15.10;99.90;;;;;;5074212;28;20543;-68
2021/06/22 00:09:10;;;;;;;6.60;5.33;;;15.10;99.90;;;;;;5086880;28;20409;-69
2021/06/22 00:11:35;;;;;;;5.80;4.80;;;15.10;99.90;;;;;;5093399;28;20159;-68
2021/06/22 00:14:01;;;;;;;10.20;6.43;;;15.10;99.90;;;;;;5090096;28;20420;-68
2021/06/22 00:16:27;;;;;;;7.67;6.30;;;15.00;99.90;;;;;;5094298;28;20239;-68
2021/06/22 00:18:53;;;;;;;8.70;7.63;;;15.00;99.90;;;;;;5094302;28;20210;-69
2021/06/22 00:21:19;;;;;;;11.23;8.80;;;15.10;99.90;;;;;;5094237;28;20950;-69
2021/06/22 00:23:44;;;;;;;10.30;8.87;;;15.00;99.90;;;;;;5094330;28;20210;-69
2021/06/22 00:26:10;;;;;;;9.23;8.30;;;15.00;99.90;;;;;;5094153;28;20539;-68
2021/06/22 00:28:35;;;;;;;9.17;7.37;;;15.00;99.90;;;;;;5093322;28;20659;-69
2021/06/22 00:31:01;;;;;;;7.47;6.20;;;15.00;99.90;;;;;;5094077;28;20229;-68
2021/06/22 00:33:26;;;;;;;8.77;6.77;;;15.00;99.90;;;;;;5094028;28;20187;-69
2021/06/22 00:35:52;;;;;;;8.70;7.90;;;15.00;99.90;;;;;;5093859;28;20182;-68
2021/06/22 00:38:17;;;;;;;8.30;7.50;;;15.00;99.90;;;;;;5093861;28;20620;-68
2021/06/22 00:40:43;;;;;;;11.13;9.07;;;15.00;99.90;;;;;;5093828;28;20159;-68
2021/06/22 00:43:08;;;;;;;11.20;9.77;;;15.00;99.90;;;;;;5093749;28;20174;-68
2021/06/22 00:45:34;;;;;;;11.33;9.53;;;15.00;99.90;;;;;;5092312;28;20243;-68
2021/06/22 00:48:00;;;;;;;10.97;9.30;;;15.00;99.90;;;;;;5073604;28;20156;-69
2021/06/22 00:50:27;;;;;;;12.27;9.77;;;15.00;99.90;;;;;;5072761;28;20673;-69
2021/06/22 00:52:53;;;;;;;14.30;10.27;;;14.90;99.90;;;;;;5073397;28;20479;-68
2021/06/22 00:55:35;;;;;;;10.20;9.00;;;14.90;99.90;;;;;;5073294;28;20402;-68
2021/06/22 00:58:05;;;;;;;11.40;8.37;;;14.90;99.90;;;;;;5073387;28;20448;-69
2021/06/22 01:00:35;;;;;;;12.07;8.20;;;14.90;99.90;;;;;;5073340;28;20430;-68
2021/06/22 01:03:01;;;;;;;9.23;8.23;;;14.90;99.90;;;;;;5073723;28;20474;-68
2021/06/22 01:05:28;;;;;;;10.37;7.60;;;14.90;99.90;;;;;;5072966;28;20569;-68
2021/06/22 01:07:56;;;;;;;8.50;6.50;;;14.80;99.90;;;;;;5074941;28;20435;-69
2021/06/22 01:10:22;;;;;;;6.40;5.77;;;14.90;99.90;;;;;;5093139;28;20409;-68
2021/06/22 01:12:49;;;;;;;5.10;4.70;;;14.80;99.90;;;;;;5093193;28;20418;-69
2021/06/22 01:17:59;;;;;;;7.57;5.10;;;14.70;99.90;;;;;;5122651;27;20290;-69
2021/06/22 01:20:30;;;;;;;7.63;5.03;;;14.70;99.90;;;;;;5082012;28;20910;-69
2021/06/22 01:22:57;;;;;;;12.00;5.70;;;14.70;99.90;;;;;;5069613;28;20386;-69
2021/06/22 01:25:22;;;;;;;6.40;5.60;;;14.60;99.90;;;;;;5069829;28;20887;-69
2021/06/22 01:27:48;;;;;;;6.80;6.10;;;14.50;99.90;;;;;;5069557;28;20489;-69
2021/06/22 01:30:14;;;;;;;8.47;6.90;;;14.50;99.90;;;;;;5069458;28;20213;-69
2021/06/22 01:32:42;;;;;;;6.30;5.70;;;14.50;99.90;;;;;;5069474;28;20148;-69
2021/06/22 01:35:09;;;;;;;6.17;5.67;;;14.40;99.90;;;;;;5069388;28;20394;-69
2021/06/22 01:37:35;;;;;;;8.87;7.03;;;14.40;99.90;;;;;;5069869;28;20477;-69
2021/06/22 01:40:06;;;;;;;8.10;6.40;;;14.40;99.90;;;;;;5069531;28;20390;-69
2021/06/22 01:42:32;;;;;;;10.43;6.73;;;14.40;99.90;;;;;;5084872;28;20413;-69
2021/06/22 01:44:59;;;;;;;7.03;5.60;;;14.40;99.90;;;;;;5089179;28;20959;-69
2021/06/22 01:47:25;;;;;;;7.50;6.43;;;14.30;99.90;;;;;;5089436;28;20163;-69
2021/06/22 01:49:59;;;;;;;8.97;5.90;;;14.30;99.90;;;;;;5089401;28;20476;-69
2021/06/22 01:52:25;;;;;;;9.97;8.30;;;14.30;99.90;;;;;;5089336;28;20852;-69
2021/06/22 01:54:53;;;;;;;9.33;8.47;;;14.30;99.90;;;;;;5077911;28;20497;-69
2021/06/22 01:57:20;;;;;;;9.27;8.37;;;14.30;99.90;;;;;;5068723;28;20195;-69
2021/06/22 01:59:46;;;;;;;12.67;11.37;;;14.30;99.90;;;;;;5068696;28;20875;-69
2021/06/22 02:02:11;;;;;;;12.87;9.60;;;14.30;99.90;;;;;;5068831;28;20447;-69
2021/06/22 02:04:37;;;;;;;13.37;10.80;;;14.20;99.90;;;;;;5068801;28;20614;-69
2021/06/22 02:07:03;;;;;;;12.27;10.80;;;14.20;99.90;;;;;;5068768;28;20531;-69
2021/06/22 02:09:28;;;;;;;11.77;10.50;;;14.20;99.90;;;;;;5084024;28;20647;-69
2021/06/22 02:11:54;;;;;;;10.03;9.00;;;14.20;99.90;;;;;;5083809;28;20178;-70
2021/06/22 02:14:19;;;;;;;11.53;8.60;;;14.20;99.90;;;;;;5068503;28;20563;-69
2021/06/22 02:16:45;;;;;;;8.93;7.97;;;14.20;99.90;;;;;;5068466;28;20203;-69
2021/06/22 02:19:10;;;;;;;10.03;7.17;;;14.20;99.90;;;;;;5068610;28;20177;-69
2021/06/22 02:21:36;;;;;;;11.30;7.43;;;14.20;99.90;;;;;;5068469;28;20167;-69
2021/06/22 02:24:01;;;;;;;11.70;7.47;;;14.20;99.90;;;;;;5068453;28;20215;-69
2021/06/22 02:26:27;;;;;;;9.00;5.77;;;14.20;99.90;;;;;;5068267;28;20187;-70
2021/06/22 02:28:53;;;;;;;7.23;6.53;;;14.20;99.90;;;;;;5057857;28;20176;-69
2021/06/22 02:31:18;;;;;;;7.43;6.73;;;14.20;99.90;;;;;;5055170;28;20157;-69
2021/06/22 02:33:44;;;;;;;9.43;6.90;;;14.20;99.90;;;;;;5054935;28;20179;-69
2021/06/22 02:36:09;;;;;;;6.87;6.17;;;14.20;99.90;;;;;;5055201;28;20261;-71
2021/06/22 02:38:35;;;;;;;7.90;6.80;;;14.20;99.90;;;;;;5055287;28;20171;-71
2021/06/22 02:41:01;;;;;;;9.90;6.60;;;14.20;99.90;;;;;;5057556;28;20157;-71
2021/06/22 02:43:26;;;;;;;8.60;7.07;;;14.20;99.90;;;;;;5074798;28;20242;-71
2021/06/22 02:45:52;;;;;;;9.47;7.37;;;14.20;99.90;;;;;;5063382;28;20659;-73
2021/06/22 02:48:18;;;;;;;8.87;7.93;;;14.20;99.90;;;;;;5054694;28;20455;-74
2021/06/22 02:50:43;;;;;;;9.40;6.73;;;14.20;99.90;;;;;;5054538;28;20269;-74
2021/06/22 02:53:11;;;;;;;7.87;6.53;;;14.20;99.90;;;;;;5054710;28;20251;-73
2021/06/22 02:55:36;;;;;;;10.90;7.30;;;14.30;99.90;;;;;;5054616;28;20586;-74
2021/06/22 02:58:02;;;;;;;10.13;7.57;;;14.30;99.90;;;;;;5054480;28;20399;-74
2021/06/22 03:00:30;;;;;;;9.60;7.40;;;14.20;99.90;;;;;;5054436;28;20480;-74
2021/06/22 03:02:56;;;;;;;12.90;11.43;;;14.20;99.90;;;;;;5055003;28;20176;-74
2021/06/22 03:05:22;;;;;;;16.73;12.90;;;14.20;99.90;;;;;;5054685;28;20406;-73
2021/06/22 03:07:48;;;;;;;15.57;12.33;;;14.20;99.90;;;;;;5055402;28;20469;-73
2021/06/22 03:10:16;;;;;;;15.70;11.40;;;14.20;99.90;;;;;;5074709;28;20961;-74
2021/06/22 03:12:41;;;;;;;14.70;11.80;;;14.10;99.90;;;;;;5074477;28;20433;-74
2021/06/22 03:15:09;;;;;;;19.17;11.20;;;14.20;99.90;;;;;;5074173;28;20925;-74
2021/06/22 03:17:36;;;;;;;12.60;10.90;;;14.20;99.90;;;;;;5074047;28;20207;-73
2021/06/22 03:20:04;;;;;;;14.60;11.30;;;14.20;99.90;;;;;;5073403;28;20401;-74
2021/06/22 03:22:29;;;;;;;14.00;10.73;;;14.10;99.90;;;;;;5074622;28;20405;-74
2021/06/22 03:24:55;;;;;;;14.10;11.07;;;14.00;99.90;;;;;;5074197;28;20477;-74
2021/06/22 03:27:20;;;;;;;15.27;10.70;;;14.00;99.90;;;;;;5074058;28;20166;-74
2021/06/22 03:29:46;;;;;;;12.80;10.87;;;14.00;99.90;;;;;;5074006;28;20167;-74
2021/06/22 03:32:12;;;;;;;11.77;10.40;;;14.00;99.90;;;;;;5073855;28;20614;-74
2021/06/22 03:34:39;;;;;;;11.33;10.23;;;14.00;99.90;;;;;;5073874;28;20252;-74
2021/06/22 03:37:05;;;;;;;14.00;9.70;;;14.00;99.90;;;;;;5072921;28;20199;-73
2021/06/22 03:39:31;;;;;;;11.33;10.23;;;14.00;99.90;;;;;;5072935;28;20390;-74
2021/06/22 03:41:56;;;;;;;10.60;9.53;;;14.10;99.90;;;;;;5073751;28;20416;-74
2021/06/22 03:44:22;;;;;;;12.83;11.53;;;14.10;99.90;;;;;;5073739;28;20245;-74
2021/06/22 03:46:48;;;;;;;12.77;11.50;;;14.00;99.90;;;;;;5073690;28;20167;-74
2021/06/22 03:49:13;;;;;;;14.60;10.90;;;14.00;99.90;;;;;;5073515;28;20167;-74
2021/06/22 03:51:39;;;;;;;12.07;10.60;;;14.00;99.90;;;;;;5073808;28;20159;-74
2021/06/22 03:54:05;;;;;;;14.10;11.70;;;14.10;99.90;;;;;;5060293;28;20207;-74
2021/06/22 03:56:32;;;;;;;12.00;10.80;;;14.10;99.90;;;;;;5053474;28;20184;-74
2021/06/22 03:58:57;;;;;;;12.73;9.40;;;14.00;99.90;;;;;;5053456;28;20518;-74
2021/06/22 04:01:23;;;;;;;11.57;10.47;;;14.00;99.90;;;;;;5053403;28;20474;-74
2021/06/22 04:03:48;;;;;;;14.80;10.63;;;14.10;99.90;;;;;;5053367;28;20156;-74
2021/06/22 04:06:15;;;;;;;12.53;10.30;;;14.10;99.90;;;;;;5053764;28;20510;-74
2021/06/22 04:08:41;;;;;;;15.30;10.33;;;14.10;99.90;;;;;;5061860;28;20186;-74
2021/06/22 04:11:07;;;;;;;11.43;10.10;;;14.10;99.90;;;;;;5071963;28;20421;-74
2021/06/22 04:13:33;;;;;;;11.73;10.53;;;14.10;99.90;;;;;;5055394;28;20422;-74
2021/06/22 04:15:58;;;;;;;13.30;11.97;;;14.10;99.90;;;;;;5053009;28;20681;-74
2021/06/22 04:18:24;;;;;;;11.50;10.30;;;14.10;99.90;;;;;;5052848;28;20660;-74
2021/06/22 04:20:50;;;;;;;15.63;10.00;;;14.10;99.90;;;;;;5054055;28;20153;-74
2021/06/22 04:23:16;;;;;;;11.37;10.37;;;14.10;99.90;;;;;;5053328;28;20165;-74
2021/06/22 04:25:43;;;;;;;9.40;8.30;;;14.10;99.90;;;;;;5054959;28;20200;-74
2021/06/22 04:28:08;;;;;;;10.13;9.10;;;14.10;99.90;;;;;;5055529;28;20748;-74
2021/06/22 04:30:35;;;;;;;10.17;8.67;;;14.10;99.90;;;;;;5058013;28;20488;-74
2021/06/22 04:33:02;;;;;;;8.80;7.87;;;14.20;99.90;;;;;;5072623;28;20242;-74
2021/06/22 04:35:30;;;;;;;7.40;6.70;;;14.30;99.90;;;;;;5062004;28;20450;-74
2021/06/22 04:37:57;;;;;;;12.03;5.80;;;14.40;99.90;;;;;;5060661;28;20443;-74
2021/06/22 04:40:23;;;;;;;9.40;5.50;;;14.40;99.90;;;;;;5059953;28;20449;-74
2021/06/22 04:42:48;;;;;;;11.73;5.77;;;14.40;99.90;;;;;;5062949;28;20942;-74
2021/06/22 04:45:15;;;;;;;7.40;5.30;;;14.50;99.90;;;;;;5071678;28;20722;-74
2021/06/22 04:47:41;;;;;;;7.20;5.33;;;14.50;99.90;;;;;;5072651;28;20590;-73
2021/06/22 04:50:07;;;;;;;10.63;5.77;;;14.60;99.90;;;;;;5065361;28;20497;-74
2021/06/22 04:52:33;;;;;;;7.67;4.63;;;14.60;99.90;;;;;;5052433;28;20156;-74
2021/06/22 04:54:59;;;;;;;5.80;4.40;;;14.50;99.90;;;;;;5065799;28;20467;-74
2021/06/22 04:57:25;;;;;;;7.27;5.47;;;14.50;99.90;;;;;;5072490;28;20453;-74
2021/06/22 04:59:50;;;;;;;5.87;4.43;;;14.60;99.90;;;;;;5072362;28;20746;-74
2021/06/22 05:02:16;;;;;;;6.63;5.03;;;14.60;99.90;;;;;;5071631;28;20613;-73
2021/06/22 05:04:42;;;;;;;7.93;4.60;;;14.60;99.90;;;;;;5069284;28;20172;-73
2021/06/22 05:07:07;;;;;;;5.70;4.70;;;14.70;99.90;;;;;;5052022;28;20543;-73
2021/06/22 05:09:33;;;;;;;6.83;5.30;;;14.70;99.90;;;;;;5066294;28;20168;-73
2021/06/22 05:11:58;;;;;;;6.87;5.30;;;14.70;99.90;;;;;;5063223;28;20656;-73
2021/06/22 05:14:24;;;;;;;9.50;5.73;;;14.70;99.90;;;;;;5064155;28;20669;-73
2021/06/22 05:16:50;;;;;;;7.93;6.17;;;14.70;99.90;;;;;;5055483;28;20255;-73
2021/06/22 05:19:16;;;;;;;8.00;5.13;;;14.80;99.90;;;;;;5057874;28;20625;-73
2021/06/22 05:21:42;;;;;;;5.83;4.93;;;14.70;99.90;;;;;;5059957;28;20248;-73
2021/06/22 05:24:08;;;;;;;9.50;5.20;;;14.70;99.90;;;;;;5059441;28;20849;-73
2021/06/22 05:26:33;;;;;;;8.80;5.03;;;14.80;99.90;;;;;;5052001;28;20490;-73
2021/06/22 05:28:59;;;;;;;5.30;4.80;;;14.80;99.90;;;;;;5053939;28;20505;-73
2021/06/22 05:31:24;;;;;;;7.90;5.67;;;14.80;99.90;;;;;;5053988;28;20218;-73
2021/06/22 05:33:50;;;;;;;7.07;5.37;;;14.80;99.90;;;;;;5059748;28;20172;-73
2021/06/22 05:36:15;;;;;;;9.93;5.13;;;14.80;99.90;;;;;;5050936;28;20291;-73
2021/06/22 05:38:41;;;;;;;10.50;5.03;;;14.80;99.90;;;;;;5050711;28;20161;-73
2021/06/22 05:41:07;;;;;;;8.40;5.70;;;14.80;99.90;;;;;;5055261;28;20243;-73
2021/06/22 05:43:33;;;;;;;8.07;5.67;;;14.80;99.90;;;;;;5072070;28;20234;-73
2021/06/22 05:45:59;;;;;;;7.20;5.47;;;14.80;99.90;;;;;;5071851;28;20164;-73
2021/06/22 05:48:25;;;;;;;5.80;5.07;;;14.70;99.90;;;;;;5071647;28;20425;-73
2021/06/22 05:50:51;;;;;;;7.13;5.60;;;14.70;99.90;;;;;;5071577;28;20401;-73
2021/06/22 05:53:17;;;;;;;6.80;4.73;;;14.80;99.90;;;;;;5056690;28;20403;-73
2021/06/22 05:55:42;;;;;;;8.53;6.10;;;14.80;99.90;;;;;;5050614;28;20309;-73
2021/06/22 05:58:08;;;;;;;9.40;6.20;;;14.70;99.90;;;;;;5051885;28;20160;-72
2021/06/22 06:00:34;;;;;;;7.03;5.10;;;14.80;99.90;;;;;;5052323;28;20172;-72
2021/06/22 06:03:00;;;;;;;9.47;6.27;;;14.80;99.90;;;;;;5053389;28;20176;-72
2021/06/22 06:05:26;;;;;;;9.83;6.77;;;14.80;99.90;;;;;;5055406;28;20426;-72
2021/06/22 06:07:52;;;;;;;9.00;6.43;;;14.70;99.90;;;;;;5065593;28;20417;-72
2021/06/22 06:10:19;;;;;;;10.53;6.80;;;14.70;99.90;;;;;;5074869;28;20182;-72
2021/06/22 06:12:45;;;;;;;9.23;7.30;;;14.70;99.90;;;;;;5064918;28;20417;-72
2021/06/22 06:15:12;;;;;;;15.80;7.70;;;14.70;99.90;;;;;;5062989;28;20405;-72
2021/06/22 06:17:38;;;;;;;12.27;9.00;;;14.70;99.90;;;;;;5061677;28;20458;-73
2021/06/22 06:20:06;;;;;;;13.63;10.60;;;14.70;99.90;;;;;;5061620;28;20424;-72
2021/06/22 06:22:32;;;;;;;15.17;9.90;;;14.70;99.90;;;;;;5065027;28;20413;-73
2021/06/22 06:25:01;;;;;;;11.37;10.27;;;14.60;99.90;;;;;;5062758;28;20417;-73
2021/06/22 06:27:38;;;;;;;12.10;10.23;;;14.60;99.90;;;;;;5060859;28;20453;-73
2021/06/22 06:30:08;;;;;;;14.40;10.13;;;14.60;99.90;;;;;;5058538;28;20471;-73
2021/06/22 06:32:34;;;;;;;17.10;9.67;;;14.60;99.90;;;;;;5066128;28;20425;-73
2021/06/22 06:35:00;;;;;;;9.77;7.40;;;14.60;99.90;;;;;;5063454;28;20510;-73
2021/06/22 06:37:25;;;;;;;12.03;8.10;;;14.50;99.90;;;;;;5062229;28;20532;-73
2021/06/22 06:39:51;;;;;;;9.07;8.10;;;14.50;99.90;;;;;;5063343;28;20172;-73
2021/06/22 06:42:16;;;;;;;16.73;8.07;;;14.60;99.90;;;;;;5061683;28;20540;-73
2021/06/22 06:44:42;;;;;;;8.90;7.97;;;14.60;99.90;;;;;;5064368;28;20199;-72
2021/06/22 06:47:07;;;;;;;9.20;8.00;;;14.60;99.90;;;;;;5065184;28;20195;-73
2021/06/22 06:49:35;;;;;;;9.10;7.67;;;14.60;99.90;;;;;;5068984;28;20176;-73
2021/06/22 06:52:03;;;;;;;12.30;7.70;;;14.60;99.90;;;;;;5062345;28;20164;-73
2021/06/22 06:54:30;;;;;;;12.53;8.03;;;14.60;99.90;;;;;;5059939;28;20421;-73
2021/06/22 06:56:56;;;;;;;10.40;7.70;;;14.80;99.90;;;;;;5063791;28;20466;-73
2021/06/22 06:59:22;;;;;;;12.87;7.43;;;14.80;99.90;;;;;;5062064;28;20446;-73
2021/06/22 07:01:47;;;;;;;9.23;6.50;;;14.70;99.90;;;;;;5062787;28;20522;-73
2021/06/22 07:04:13;;;;;;;10.40;7.27;;;14.80;99.90;;;;;;5072819;28;20163;-73
2021/06/22 07:06:38;;;;;;;11.00;7.53;;;14.80;99.90;;;;;;5058037;28;20171;-73
2021/06/22 07:09:04;;;;;;;8.60;7.77;;;14.80;99.90;;;;;;5064446;28;20275;-73
2021/06/22 07:11:30;;;;;;;8.80;7.63;;;14.80;99.90;;;;;;5053619;28;20191;-72
2021/06/22 07:13:56;;;;;;;10.33;8.20;;;14.90;99.90;;;;;;5072544;28;20183;-72
2021/06/22 07:16:22;;;;;;;10.27;6.87;;;15.00;99.90;;;;;;5064509;28;20230;-73
2021/06/22 07:18:47;;;;;;;8.37;7.30;;;14.90;99.90;;;;;;5056285;28;20788;-73
2021/06/22 07:21:13;;;;;;;9.57;7.27;;;14.90;99.90;;;;;;5073729;28;20886;-73
2021/06/22 07:23:39;;;;;;;13.57;9.27;;;14.90;99.90;;;;;;5062231;28;20274;-73
2021/06/22 07:26:05;;;;;;;11.60;8.10;;;14.90;99.90;;;;;;5058477;28;20184;-73
2021/06/22 07:28:31;;;;;;;10.27;7.70;;;14.80;99.90;;;;;;5056069;28;20227;-73
2021/06/22 07:30:56;;;;;;;10.30;7.80;;;14.90;99.90;;;;;;5067114;28;20171;-73
2021/06/22 07:33:22;;;;;;;9.30;7.70;;;14.90;99.90;;;;;;5062970;28;20172;-73
2021/06/22 07:35:47;;;;;;;11.53;7.83;;;14.90;99.90;;;;;;5061796;28;20541;-73
2021/06/22 07:38:13;;;;;;;8.50;7.80;;;14.90;99.90;;;;;;5059910;28;20591;-73
2021/06/22 07:40:39;;;;;;;9.80;7.90;;;15.00;99.90;;;;;;5062572;28;20160;-73
2021/06/22 07:43:05;;;;;;;9.23;8.30;;;15.00;99.90;;;;;;5062960;28;20172;-73
2021/06/22 07:45:30;;;;;;;9.03;7.57;;;15.10;99.90;;;;;;5063968;28;20471;-73
2021/06/22 07:47:56;;;;;;;10.47;7.97;;;15.10;99.90;;;;;;5062747;28;20198;-73
2021/06/22 07:50:23;;;;;;;16.00;7.70;;;15.20;99.90;;;;;;5058247;28;20180;-73
2021/06/22 07:52:50;;;;;;;10.90;8.00;;;15.30;99.90;;;;;;5058957;28;20417;-73
2021/06/22 07:55:15;;;;;;;11.07;8.00;;;15.30;99.90;;;;;;5062164;28;20776;-73
2021/06/22 07:57:44;;;;;;;10.13;8.23;;;15.30;99.90;;;;;;5056418;28;20445;-73
2021/06/22 08:00:18;;;;;;;8.33;7.50;;;15.40;99.90;;;;;;5054085;28;20537;-73
2021/06/22 08:02:44;;;;;;;13.80;8.07;;;15.40;99.90;;;;;;5062367;28;20421;-73
2021/06/22 08:05:10;;;;;;;9.53;8.63;;;15.40;99.90;;;;;;5063964;28;20439;-72
2021/06/22 08:07:36;;;;;;;8.40;7.40;;;15.40;99.90;;;;;;5063179;28;20176;-72
2021/06/22 08:10:01;;;;;;;10.40;8.13;;;15.40;99.90;;;;;;5056914;28;20425;-72
2021/06/22 08:12:27;;;;;;;9.73;7.40;;;15.40;99.90;;;;;;5063222;28;20258;-72
2021/06/22 08:14:52;;;;;;;11.93;7.90;;;15.40;99.90;;;;;;5063704;28;20176;-72
2021/06/22 08:17:18;;;;;;;11.73;7.63;;;15.50;99.90;;;;;;5060890;28;20195;-72
2021/06/22 08:19:43;;;;;;;7.77;6.97;;;15.50;99.90;;;;;;5064517;28;20579;-72
2021/06/22 08:22:09;;;;;;;8.97;8.07;;;15.50;99.90;;;;;;5065906;28;20344;-72
2021/06/22 08:24:34;;;;;;;9.03;7.37;;;15.60;99.90;;;;;;5057192;28;20234;-72
2021/06/22 08:27:00;;;;;;;12.50;7.47;;;15.60;99.90;;;;;;5061627;28;20175;-72
2021/06/22 08:29:26;;;;;;;10.97;7.90;;;15.70;99.90;;;;;;5063683;28;20571;-72
2021/06/22 08:31:52;;;;;;;10.13;9.00;;;15.80;99.90;;;;;;5055769;28;20266;-72
2021/06/22 08:34:17;;;;;;;9.03;7.83;;;15.90;99.90;;;;;;5055596;28;20259;-72
2021/06/22 08:36:43;;;;;;;9.17;8.27;;;16.00;99.90;;;;;;5058282;28;20950;-72
2021/06/22 08:39:09;;;;;;;9.00;8.10;;;16.00;99.90;;;;;;5053042;28;20262;-72
2021/06/22 08:41:38;;;;;;;8.30;7.40;;;16.10;99.90;;;;;;5051131;28;20195;-72
2021/06/22 08:44:04;;;;;;;8.90;7.63;;;16.20;99.90;;;;;;5062457;28;20171;-72
2021/06/22 08:46:30;;;;;;;8.83;7.97;;;16.40;99.90;;;;;;5053792;28;21040;-72
2021/06/22 08:48:55;;;;;;;10.83;7.30;;;16.50;99.90;;;;;;5051970;28;20411;-72
2021/06/22 08:51:22;;;;;;;11.07;8.87;;;16.60;99.90;;;;;;5052883;28;20813;-72
2021/06/22 08:53:48;;;;;;;9.73;7.50;;;16.70;99.90;;;;;;5057929;28;20172;-72
2021/06/22 08:56:13;;;;;;;9.03;8.20;;;16.70;99.90;;;;;;5060991;28;20503;-72
2021/06/22 08:58:39;;;;;;;12.87;8.80;;;16.70;99.90;;;;;;5067739;28;20433;-72
2021/06/22 09:01:05;;;;;;;8.30;6.70;;;16.60;99.90;;;;;;5057340;28;20209;-72
2021/06/22 09:03:31;;;;;;;9.60;8.70;;;16.60;99.90;;;;;;5054623;28;20539;-72
2021/06/22 09:05:59;;;;;;;9.70;7.43;;;16.60;99.90;;;;;;5057707;28;20174;-72
2021/06/22 09:11:13;;;;;;;7.17;6.47;;;16.80;99.90;;;;;;5124760;27;20686;-72
2021/06/22 09:13:41;;;;;;;9.63;7.40;;;17.50;99.90;;;;;;5084602;28;20420;-72
2021/06/22 09:16:10;;;;;;;7.10;6.40;;;18.40;99.90;;;;;;5087999;28;20455;-72
2021/06/22 09:18:41;;;;;;;7.30;6.33;;;18.80;99.90;;;;;;5088507;28;20775;-74
2021/06/22 09:21:13;;;;;;;6.73;6.13;;;18.80;99.90;;;;;;5086412;28;20925;-74
2021/06/22 09:23:41;;;;;;;6.73;6.03;;;19.00;99.90;;;;;;5090133;28;20427;-71
2021/06/22 09:26:30;;;;;;;7.77;6.10;;;19.50;99.90;;;;;;5088381;28;20734;-71
2021/06/22 09:29:14;;;;;;;6.17;5.53;;;19.80;99.90;;;;;;5087302;28;20445;-72
2021/06/22 09:31:50;;;;;;;7.03;6.33;;;20.50;99.90;;;;;;5086612;28;20413;-74
2021/06/22 09:34:18;;;;;;;6.93;6.20;;;20.60;99.90;;;;;;5067925;28;20440;-72
2021/06/22 09:36:51;;;;;;;8.83;6.77;;;20.60;99.90;;;;;;5068839;28;20432;-71
2021/06/22 09:39:17;;;;;;;11.03;7.43;;;20.30;99.90;;;;;;5066744;28;20416;-74
2021/06/22 09:41:43;;;;;;;9.20;7.07;;;19.90;99.90;;;;;;5068320;28;20425;-74
2021/06/22 09:46:52;;;;;;;8.57;6.53;;;19.70;99.90;;;;;;5137995;27;20751;-72
2021/06/22 09:52:03;;;;;;;4.30;4.00;;;19.40;99.90;;;;;;5135108;27;20393;-72
2021/06/22 09:54:31;;;;;;;8.40;4.40;;;18.90;99.90;;;;;;5120527;28;20764;-72
2021/06/22 09:57:00;;;;;;;6.13;4.90;;;18.70;99.90;;;;;;5119028;28;20384;-71
2021/06/22 09:59:28;;;;;;;5.67;5.13;;;18.60;99.90;;;;;;5115815;28;20397;-71
2021/06/22 10:02:02;;;;;;;5.20;4.40;;;18.50;99.90;;;;;;5111175;28;20404;-71
2021/06/22 10:04:28;;;;;;;5.00;4.60;;;18.50;99.90;;;;;;5102392;28;20416;-72
2021/06/22 10:06:57;;;;;;;7.03;4.60;;;18.40;99.90;;;;;;5100883;27;20466;-71
2021/06/22 10:09:27;;;;;;;5.97;5.47;;;18.40;99.90;;;;;;5097184;28;20159;-72
2021/06/22 10:11:58;;;;;;;7.20;5.43;;;18.30;99.90;;;;;;5112509;28;20447;-72
2021/06/22 10:17:10;;;;;;;7.43;5.40;;;18.00;99.90;;;;;;5138882;27;20343;-73
2021/06/22 10:19:37;;;;;;;5.47;4.93;;;18.10;99.90;;;;;;5129351;27;20406;-73
2021/06/22 10:22:05;;;;;;;5.90;5.37;;;18.10;99.90;;;;;;5129029;27;20407;-73
2021/06/22 10:24:33;;;;;;;6.40;5.20;;;18.30;99.90;;;;;;5124994;27;20411;-73
2021/06/22 10:26:59;;;;;;;6.00;5.50;;;18.50;99.90;;;;;;5128029;27;20415;-73
2021/06/22 10:29:26;;;;;;;6.20;5.60;;;18.60;99.90;;;;;;5131021;27;20403;-73
2021/06/22 10:31:57;;;;;;;7.00;5.20;;;18.70;99.90;;;;;;5130316;27;20435;-73
2021/06/22 10:34:24;;;;;;;8.77;5.73;;;18.70;99.90;;;;;;5128882;27;20404;-73
2021/06/22 10:39:48;;;;;;;6.23;5.30;;;18.80;99.90;;;;;;5132935;27;20295;-72
2021/06/22 10:42:14;;;;;;;7.80;5.07;;;18.80;99.90;;;;;;5119148;28;20450;-72
2021/06/22 10:47:21;;;;;;;5.50;5.00;;;18.80;99.90;;;;;;5146819;27;20793;-72
2021/06/22 11:03:33;;;;;;;11.07;8.27;;;18.30;99.90;;;;;;5135759;27;20738;-71
2021/06/22 11:08:50;;;;;;;7.17;6.47;;;18.10;99.90;;;;;;5136904;27;20305;-71
2021/06/22 11:11:18;;;;;;;7.90;6.47;;;18.00;99.90;;;;;;5119963;28;20387;-71
2021/06/22 11:21:32;;;;;;;7.60;6.43;;;18.00;99.90;;;;;;5120477;27;20275;-73
2021/06/22 11:29:21;;;;;;;11.30;6.80;;;18.30;99.90;;;;;;5143394;27;20311;-72
2021/06/22 11:31:58;;;;;;;7.83;7.03;;;18.50;99.90;;;;;;5113208;28;20410;-72
2021/06/22 11:42:42;;;;;;;13.27;8.10;;;18.40;99.90;;;;;;5134810;27;20354;-73
2021/06/22 11:50:26;;;;;;;9.50;7.70;;;18.40;99.90;;;;;;5136764;27;20297;-72
2021/06/22 11:53:01;;;;;;;10.53;7.13;;;18.80;99.90;;;;;;5115983;28;20423;-72
2021/06/22 11:55:27;;;;;;;7.53;6.43;;;18.80;99.90;;;;;;5118696;28;20899;-72
2021/06/22 11:57:56;;;;;;;7.00;6.40;;;18.80;99.90;;;;;;5120349;28;20407;-72
2021/06/22 12:03:01;;;;;;;9.80;7.00;;;18.80;99.90;;;;;;5138647;27;20758;-73
2021/06/22 12:05:29;;;;;;;9.43;7.90;;;18.80;99.90;;;;;;5118580;28;20996;-73
2021/06/22 12:07:58;;;;;;;8.90;7.30;;;18.60;99.90;;;;;;5111044;28;20510;-73
2021/06/22 12:10:47;;;;;;;9.63;8.47;;;18.60;99.90;;;;;;5114642;28;20393;-73
2021/06/22 12:13:26;;;;;;;8.73;7.77;;;18.50;99.90;;;;;;5119360;28;20948;-73
2021/06/22 12:15:52;;;;;;;8.60;7.10;;;18.40;99.90;;;;;;5117373;28;20440;-73
2021/06/22 12:18:18;;;;;;;8.50;7.70;;;18.40;99.90;;;;;;5119944;28;20878;-73
2021/06/22 12:20:45;;;;;;;11.60;9.53;;;18.30;99.90;;;;;;5113639;28;20212;-73
2021/06/22 12:28:31;;;;;;;10.97;7.27;;;18.40;99.90;;;;;;5100473;27;20769;-73
2021/06/22 12:30:58;;;;;;;8.70;6.77;;;18.50;99.90;;;;;;5078754;28;20426;-73
2021/06/22 12:33:28;;;;;;;7.90;6.80;;;18.60;99.90;;;;;;5066943;28;20986;-73
2021/06/22 12:35:59;;;;;;;10.20;7.17;;;18.70;99.90;;;;;;5057764;28;20461;-73
2021/06/22 12:38:25;;;;;;;8.20;6.40;;;18.80;99.90;;;;;;5051499;28;20769;-73
2021/06/22 12:41:00;;;;;;;7.70;6.57;;;18.80;99.90;;;;;;5058629;28;20430;-73
2021/06/22 12:46:23;;;;;;;12.17;7.00;;;18.70;99.90;;;;;;5124974;27;20289;-72
2021/06/22 12:48:56;;;;;;;7.50;6.70;;;18.40;99.90;;;;;;5094416;28;20940;-72
2021/06/22 12:51:22;;;;;;;7.80;6.40;;;18.40;99.90;;;;;;5110240;28;20809;-72
2021/06/22 12:53:50;;;;;;;9.00;7.17;;;18.40;99.90;;;;;;5108094;28;20389;-72
2021/06/22 12:56:19;;;;;;;9.23;7.60;;;18.40;99.90;;;;;;5087416;28;20427;-72
2021/06/22 12:59:09;;;;;;;8.67;7.63;;;18.40;99.90;;;;;;5089209;28;20426;-72
2021/06/22 13:04:13;;;;;;;12.70;7.60;;;18.30;99.90;;;;;;5131679;27;20755;-72
2021/06/22 13:09:20;;;;;;;9.37;7.57;;;18.30;99.90;;;;;;5144338;27;20749;-72
2021/06/22 13:11:57;;;;;;;8.60;7.43;;;18.40;99.90;;;;;;5130856;28;20472;-73
2021/06/22 13:14:43;;;;;;;10.20;6.50;;;18.50;99.90;;;;;;5121561;28;20459;-73
2021/06/22 13:17:14;;;;;;;7.67;6.97;;;18.60;99.90;;;;;;5107689;28;21096;-73
2021/06/22 13:19:43;;;;;;;7.30;6.50;;;18.60;99.90;;;;;;5096273;28;20414;-73
2021/06/22 13:22:10;;;;;;;8.30;7.07;;;18.50;99.90;;;;;;5106965;28;20398;-73
2021/06/22 13:24:40;;;;;;;9.43;6.90;;;18.50;99.90;;;;;;5108270;28;20886;-73
2021/06/22 13:27:09;;;;;;;7.90;7.10;;;18.50;99.90;;;;;;5109061;28;20403;-73
2021/06/22 13:30:14;;;;;;;8.90;7.77;;;18.50;99.90;;;;;;5108389;28;20477;-73
2021/06/22 13:32:43;;;;;;;10.50;9.33;;;18.50;99.90;;;;;;5106320;28;20425;-72
2021/06/22 13:38:03;;;;;;;12.17;10.10;;;18.40;99.90;;;;;;5126394;27;20356;-73
2021/06/22 13:40:31;;;;;;;8.53;7.63;;;17.90;99.90;;;;;;5110325;28;20413;-73
2021/06/22 13:43:16;;;;;;;9.37;8.47;;;17.60;99.90;;;;;;5110646;28;20400;-73
2021/06/22 13:48:32;;;;;;;10.43;8.40;;;17.20;99.90;;;;;;5141228;27;20300;-73
2021/06/22 13:51:01;;;;;;;10.57;8.70;;;17.20;99.90;;;;;;5129706;28;20417;-73
2021/06/22 13:53:32;;;;;;;10.07;9.17;;;17.20;99.90;;;;;;5130826;28;20501;-73
2021/06/22 13:55:59;;;;;;;10.00;8.97;;;17.20;99.90;;;;;;5131333;28;20421;-73
2021/06/22 13:58:24;;;;;;;9.63;8.63;;;17.10;99.90;;;;;;5102697;28;20433;-73
2021/06/22 14:00:51;;;;;;;11.23;9.00;;;17.10;99.90;;;;;;5113137;28;20420;-73
2021/06/22 14:03:18;;;;;;;9.07;8.17;;;17.10;99.90;;;;;;5110221;28;20577;-72
2021/06/22 14:05:45;;;;;;;13.90;9.07;;;17.00;99.90;;;;;;5105054;28;20407;-72